Isa (cyprus) — P3HF8 — position and weather

sailwx.info

Track history (hours):
 
Tides and Currents Weather Stations Pressure Air Temp Water Temp Dewpoint Dewpoint Depression Visibility Wind Speed Wind Dir Waves Ship Positions

Isa (cyprus)

Last reported at 2018-Jul-17 07:14 UTC. Time now 2018-Jul-22 14:00 UTC.
Position N 46°50' W 071°08'.

Length 200 m; beam 24 m.

Type: Cargo ship. MMSI: 212773000.

Date/timePositionNaut miles runAvg speedWind from/ knotsBaromVisibWave heightAir tempDewpointWater temp
2018-Jul-17 07:14N 46°50' W 071°08'9312.1
2018-Jul-16 23:30N 46°04' W 073°05'611.9
2018-Jul-16 22:59N 45°59' W 073°11'613.2
2018-Jul-16 22:30N 45°53' W 073°14'612.6
2018-Jul-16 22:01N 45°48' W 073°20'713.6
2018-Jul-16 21:30N 45°43' W 073°26'9 0.7
2018-Jul-16 08:48N 45°35' W 073°30'1 3.1
2018-Jul-16 08:30N 45°34' W 073°31'5 3.2
2018-Jul-16 06:58N 45°29' W 073°31'3 5.6
2018-Jul-16 06:30N 45°26' W 073°30'3 5.6
2018-Jul-16 05:57N 45°24' W 073°34'0 0.7
2018-Jul-16 05:28N 45°24' W 073°34'1 2.2
2018-Jul-16 04:56N 45°24' W 073°36'2 5.5
2018-Jul-16 04:30N 45°24' W 073°39'3 5.9
2018-Jul-16 04:00N 45°24' W 073°43'611.2
2018-Jul-16 03:30N 45°22' W 073°50'4 8.7
2018-Jul-16 03:00N 45°19' W 073°55'0 0.7
2018-Jul-16 02:30N 45°19' W 073°55'1 1.2
2018-Jul-16 02:00N 45°18' W 073°56'2 2.2
2018-Jul-16 01:18N 45°17' W 073°57'2 6.3
2018-Jul-16 00:57N 45°15' W 073°58'6 9.8
2018-Jul-16 00:20N 45°14' W 074°07'410.0
2018-Jul-15 23:54N 45°14' W 074°13'  
Track history (hours):
 
Tides and Currents Weather Stations Pressure Air Temp Water Temp Dewpoint Dewpoint Depression Visibility Wind Speed Wind Dir Waves Ship Positions

Isa (cyprus)

Last reported at 2018-Jul-17 07:14 UTC. Time now 2018-Jul-22 14:00 UTC.
Position N 46°50' W 071°08'.

Length 200 m; beam 24 m.

Type: Cargo ship. MMSI: 212773000.

Date/timePositionNaut miles runAvg speedWind from/ knotsBaromVisibWave heightAir tempDewpointWater temp
2018-Jul-17 07:14N 46°50' W 071°08'9312.1
2018-Jul-16 23:30N 46°04' W 073°05'611.9
2018-Jul-16 22:59N 45°59' W 073°11'613.2
2018-Jul-16 22:30N 45°53' W 073°14'612.6
2018-Jul-16 22:01N 45°48' W 073°20'713.6
2018-Jul-16 21:30N 45°43' W 073°26'9 0.7
2018-Jul-16 08:48N 45°35' W 073°30'1 3.1
2018-Jul-16 08:30N 45°34' W 073°31'5 3.2
2018-Jul-16 06:58N 45°29' W 073°31'3 5.6
2018-Jul-16 06:30N 45°26' W 073°30'3 5.6
2018-Jul-16 05:57N 45°24' W 073°34'0 0.7
2018-Jul-16 05:28N 45°24' W 073°34'1 2.2
2018-Jul-16 04:56N 45°24' W 073°36'2 5.5
2018-Jul-16 04:30N 45°24' W 073°39'3 5.9
2018-Jul-16 04:00N 45°24' W 073°43'611.2
2018-Jul-16 03:30N 45°22' W 073°50'4 8.7
2018-Jul-16 03:00N 45°19' W 073°55'0 0.7
2018-Jul-16 02:30N 45°19' W 073°55'1 1.2
2018-Jul-16 02:00N 45°18' W 073°56'2 2.2
2018-Jul-16 01:18N 45°17' W 073°57'2 6.3
2018-Jul-16 00:57N 45°15' W 073°58'6 9.8
2018-Jul-16 00:20N 45°14' W 074°07'410.0
2018-Jul-15 23:54N 45°14' W 074°13'  

Dump ship's entire track history